Rana Miller — WDE7064 — position and weather

sailwx.info

Track history (hours):
 
Tides and Currents Weather Stations Pressure Air Temp Water Temp Dewpoint Dewpoint Depression Visibility Wind Speed Wind Dir Waves Ship Positions

Rana Miller

Owner: Miller's Tug & Barge, Staten Island, NY. More information available from US FCC via Universal Licensing System and Coast Guard Vessel Documentation Center.

Last reported at 2017-Nov-18 17:30 UTC. Time now 2017-Nov-18 17:54 UTC.
Position N 40°38' W 074°04'.

Length 40 m; draft 3.5 m.

Type: Ship. MMSI: 367388520.

Date/timePositionNaut miles runAvg speedWind from/ knotsBaromVisibWave heightAir tempDewpointWater temp
2017-Nov-18 17:30N 40°38' W 074°04'0 0.4
2017-Nov-18 17:00N 40°38' W 074°04'0 0.0
2017-Nov-18 16:30N 40°38' W 074°04'0 0.0
2017-Nov-18 16:00N 40°38' W 074°04'0 0.0
2017-Nov-18 15:31N 40°38' W 074°04'0 0.0
2017-Nov-18 15:01N 40°38' W 074°04'0 0.0
2017-Nov-18 14:31N 40°38' W 074°04'0 0.0
2017-Nov-18 14:01N 40°38' W 074°04'0 0.0
2017-Nov-18 13:30N 40°38' W 074°04'0 0.0
2017-Nov-18 13:00N 40°38' W 074°04'0 0.0
2017-Nov-18 12:31N 40°38' W 074°04'0 0.0
2017-Nov-18 12:01N 40°38' W 074°04'0 0.0
2017-Nov-18 11:31N 40°38' W 074°04'0 0.0
2017-Nov-18 11:00N 40°38' W 074°04'0 0.0
2017-Nov-18 10:30N 40°38' W 074°04'0 0.0
2017-Nov-18 10:01N 40°38' W 074°04'0 0.0
2017-Nov-18 09:31N 40°38' W 074°04'0 0.0
2017-Nov-18 09:01N 40°38' W 074°04'0 0.0
2017-Nov-18 08:31N 40°38' W 074°04'0 0.0
2017-Nov-18 08:01N 40°38' W 074°04'0 0.0
2017-Nov-18 07:31N 40°38' W 074°04'0 0.0
2017-Nov-18 07:00N 40°38' W 074°04'0 0.0
2017-Nov-18 06:30N 40°38' W 074°04'0 0.0
2017-Nov-18 06:01N 40°38' W 074°04'0 0.0
2017-Nov-18 05:31N 40°38' W 074°04'0 0.0
2017-Nov-18 05:01N 40°38' W 074°04'2 3.7
2017-Nov-18 04:31N 40°37' W 074°03'4 8.2
2017-Nov-18 04:00N 40°33' W 074°01'4 7.9
2017-Nov-18 03:30N 40°30' W 073°57'4 8.7
2017-Nov-18 03:00N 40°28' W 073°52'186 8.3
2017-Nov-17 04:43N 42°14' W 070°29'2 9.5
2017-Nov-17 04:30N 42°16' W 070°28'5 9.3
2017-Nov-17 04:00N 42°21' W 070°27'4 8.8
2017-Nov-17 03:30N 42°25' W 070°25'5 9.5
2017-Nov-17 03:00N 42°30' W 070°25'510.1
2017-Nov-17 02:30N 42°35' W 070°25'510.2
2017-Nov-17 02:01N 42°40' W 070°25'510.0
2017-Nov-17 01:30N 42°45' W 070°25'5 9.6
2017-Nov-17 01:00N 42°49' W 070°24'13 0.6
2017-Nov-16 03:18N 42°45' W 070°06'310.1
2017-Nov-16 03:00N 42°43' W 070°07'510.1
2017-Nov-16 02:29N 42°38' W 070°10'510.2
2017-Nov-16 02:00N 42°33' W 070°12'510.3
2017-Nov-16 01:30N 42°28' W 070°14'237 9.1
2017-Nov-14 23:28N 39°44' W 073°60'5 9.6
2017-Nov-14 22:59N 39°41' W 074°05'5 9.8
2017-Nov-14 22:29N 39°37' W 074°08'60 7.7
2017-Nov-14 14:42N 38°57' W 075°07'211.7
2017-Nov-14 14:31N 38°59' W 075°08'611.5
2017-Nov-14 14:00N 39°04' W 075°11'610.9
2017-Nov-14 13:30N 39°09' W 075°15'510.3
2017-Nov-14 13:00N 39°13' W 075°18'5 9.6
2017-Nov-14 12:30N 39°17' W 075°22'4 8.7
2017-Nov-14 12:00N 39°20' W 075°26'4 8.3
2017-Nov-14 11:30N 39°23' W 075°29'4 8.4
2017-Nov-14 11:01N 39°27' W 075°33'4 7.7
2017-Nov-14 10:30N 39°30' W 075°33'3 6.6
2017-Nov-14 10:01N 39°34' W 075°34'611.2
2017-Nov-14 09:31N 39°33' W 075°41'611.2
2017-Nov-14 09:00N 39°32' W 075°48'4 8.8
2017-Nov-14 08:30N 39°31' W 075°54'510.6
2017-Nov-14 08:00N 39°27' W 075°59'510.2
2017-Nov-14 07:30N 39°24' W 076°04'510.2
2017-Nov-14 07:00N 39°21' W 076°10'5 9.5
2017-Nov-14 06:30N 39°17' W 076°14'5 9.6
2017-Nov-14 06:00N 39°13' W 076°15'5 9.6
2017-Nov-14 05:29N 39°09' W 076°19'510.3
2017-Nov-14 05:00N 39°10' W 076°25'510.4
2017-Nov-14 04:30N 39°13' W 076°31'4 7.3
2017-Nov-14 04:01N 39°16' W 076°34'0 0.0
2017-Nov-14 03:30N 39°16' W 076°34'0 0.0
2017-Nov-14 03:01N 39°16' W 076°34'0 0.0
2017-Nov-14 02:31N 39°16' W 076°34'0 0.0
2017-Nov-14 02:01N 39°16' W 076°34'0 0.0
2017-Nov-14 01:30N 39°16' W 076°34'0 0.0
2017-Nov-14 01:00N 39°16' W 076°34'0 0.0
2017-Nov-14 00:31N 39°16' W 076°34'0 0.0
2017-Nov-14 00:00N 39°16' W 076°34'0 0.0
2017-Nov-13 23:31N 39°16' W 076°34'0 0.0
2017-Nov-13 23:00N 39°16' W 076°34'0 0.0
2017-Nov-13 22:30N 39°16' W 076°34'0 0.0
2017-Nov-13 22:01N 39°16' W 076°34'86 3.8
2017-Nov-12 23:32N 38°53' W 074°47'0 9.6
2017-Nov-12 23:30N 38°53' W 074°47'23 9.4
2017-Nov-12 21:05N 39°12' W 074°31'1 9.8
2017-Nov-12 20:57N 39°13' W 074°30'26 9.7
2017-Nov-12 18:18N 39°33' W 074°09'310.0
2017-Nov-12 17:59N 39°36' W 074°07'510.0
2017-Nov-12 17:29N 39°40' W 074°04'610.0
2017-Nov-12 16:55N 39°45' W 074°00'3510.0
2017-Nov-12 13:25N 40°20' W 073°56'410.0
2017-Nov-12 13:00N 40°24' W 073°55'5 8.7
2017-Nov-12 12:23N 40°30' W 073°56'410.4
2017-Nov-12 12:01N 40°31' W 074°00'510.8
2017-Nov-12 11:30N 40°37' W 074°03'2 3.7
2017-Nov-12 11:00N 40°38' W 074°04'0 0.0
2017-Nov-12 10:30N 40°38' W 074°04'0 0.0
2017-Nov-12 10:00N 40°38' W 074°04'0 0.0
2017-Nov-12 09:28N 40°38' W 074°04'0 0.0
2017-Nov-12 08:58N 40°38' W 074°04'0 0.0
2017-Nov-12 08:28N 40°38' W 074°04'0 0.0
2017-Nov-12 07:58N 40°38' W 074°04'0 0.0
2017-Nov-12 07:28N 40°38' W 074°04'0 0.0
2017-Nov-12 07:00N 40°38' W 074°04'0 0.0
2017-Nov-12 06:30N 40°38' W 074°04'0 0.0
2017-Nov-12 06:00N 40°38' W 074°04'0 0.1
2017-Nov-12 05:30N 40°38' W 074°04'0 0.0
2017-Nov-12 05:00N 40°38' W 074°04'0 0.0
2017-Nov-12 04:30N 40°38' W 074°04'0 0.0
2017-Nov-12 03:57N 40°38' W 074°04'0 0.0
2017-Nov-12 03:30N 40°38' W 074°04'0 0.0
2017-Nov-12 03:00N 40°38' W 074°04'0 0.0
2017-Nov-12 02:30N 40°38' W 074°04'0 0.0
2017-Nov-12 01:30N 40°38' W 074°04'0 0.0
2017-Nov-12 00:54N 40°38' W 074°04'0 0.0
2017-Nov-12 00:27N 40°38' W 074°04'0 0.0
2017-Nov-12 00:00N 40°38' W 074°04'0 0.1
2017-Nov-11 23:30N 40°38' W 074°04'0 0.0
2017-Nov-11 23:00N 40°38' W 074°04'0 0.0
2017-Nov-11 22:30N 40°38' W 074°04'0 0.0
2017-Nov-11 21:57N 40°38' W 074°04'0 0.0
2017-Nov-11 21:27N 40°38' W 074°04'0 0.0
2017-Nov-11 21:00N 40°38' W 074°04'0 0.0
2017-Nov-11 20:30N 40°38' W 074°04'0 0.0
2017-Nov-11 20:00N 40°38' W 074°04'0 0.0
2017-Nov-11 19:30N 40°38' W 074°04'0 0.0
2017-Nov-11 19:00N 40°38' W 074°04'0 0.0
2017-Nov-11 18:27N 40°38' W 074°04'0 0.0
2017-Nov-11 17:57N 40°38' W 074°04'0 0.0
2017-Nov-11 17:30N 40°38' W 074°04'0 0.0
2017-Nov-11 16:51N 40°38' W 074°04'0 0.0
2017-Nov-11 16:30N 40°38' W 074°04'0 0.0
2017-Nov-11 16:00N 40°38' W 074°04'0 0.0
2017-Nov-11 15:30N 40°38' W 074°04'0 0.0
2017-Nov-11 15:00N 40°38' W 074°04'0 0.0
2017-Nov-11 14:30N 40°38' W 074°04'0 0.0
2017-Nov-11 14:00N 40°38' W 074°04'0 0.0
2017-Nov-11 13:30N 40°38' W 074°04'0 0.0
2017-Nov-11 13:00N 40°38' W 074°04'0 0.0
2017-Nov-11 12:27N 40°38' W 074°04'0 0.0
2017-Nov-11 12:00N 40°38' W 074°04'0 0.0
2017-Nov-11 11:30N 40°38' W 074°04'0 0.0
2017-Nov-11 10:57N 40°38' W 074°04'0 0.0
2017-Nov-11 10:30N 40°38' W 074°04'0 0.0
2017-Nov-11 10:00N 40°38' W 074°04'0 0.0
2017-Nov-11 09:30N 40°38' W 074°04'0 0.0
2017-Nov-11 09:00N 40°38' W 074°04'0 0.0
2017-Nov-11 08:30N 40°38' W 074°04'0 0.0
2017-Nov-11 08:00N 40°38' W 074°04'0 0.0
2017-Nov-11 07:30N 40°38' W 074°04'0 0.0
2017-Nov-11 07:00N 40°38' W 074°04'0 0.0
2017-Nov-11 06:30N 40°38' W 074°04'0 0.0
2017-Nov-11 06:00N 40°38' W 074°04'0 0.0
2017-Nov-11 05:30N 40°38' W 074°04'0 0.0
2017-Nov-11 05:00N 40°38' W 074°04'0 0.0
2017-Nov-11 04:30N 40°38' W 074°04'0 0.0
2017-Nov-11 04:00N 40°38' W 074°04'0 0.0
2017-Nov-11 03:30N 40°38' W 074°04'0 0.0
2017-Nov-11 03:00N 40°38' W 074°04'0 0.0
2017-Nov-11 02:30N 40°38' W 074°04'0 0.0
2017-Nov-11 02:00N 40°38' W 074°04'0 0.0
2017-Nov-11 01:30N 40°38' W 074°04'0 0.0
2017-Nov-11 00:57N 40°38' W 074°04'0 0.0
2017-Nov-11 00:30N 40°38' W 074°04'0 0.0
2017-Nov-10 23:57N 40°38' W 074°04'0 0.0
2017-Nov-10 23:30N 40°38' W 074°04'0 0.0
2017-Nov-10 22:57N 40°38' W 074°04'0 0.0
2017-Nov-10 22:30N 40°38' W 074°04'0 0.0
2017-Nov-10 22:00N 40°38' W 074°04'0 0.0
2017-Nov-10 21:30N 40°38' W 074°04'0 0.0
2017-Nov-10 21:00N 40°38' W 074°04'0 0.0
2017-Nov-10 20:30N 40°38' W 074°04'0 0.1
2017-Nov-10 20:00N 40°38' W 074°04'0 0.0
2017-Nov-10 19:30N 40°38' W 074°04'0 0.0
2017-Nov-10 19:00N 40°38' W 074°04'0 0.0
2017-Nov-10 18:30N 40°38' W 074°04'0 0.0
2017-Nov-10 18:00N 40°38' W 074°04'0 0.0
2017-Nov-10 17:27N 40°38' W 074°04'0 0.0
2017-Nov-10 17:00N 40°38' W 074°04'0 0.0
2017-Nov-10 16:30N 40°38' W 074°04'0 0.1
2017-Nov-10 16:00N 40°38' W 074°04'0 0.0
2017-Nov-10 15:30N 40°38' W 074°04'0 0.0
2017-Nov-10 15:00N 40°38' W 074°04'0 0.0
2017-Nov-10 14:30N 40°38' W 074°04'0 0.0
2017-Nov-10 14:00N 40°38' W 074°04'0 0.0
2017-Nov-10 13:30N 40°38' W 074°04'0 0.0
2017-Nov-10 13:00N 40°38' W 074°04'0 0.0
2017-Nov-10 12:30N 40°38' W 074°04'0 0.0
2017-Nov-10 11:57N 40°38' W 074°04'0 0.0
2017-Nov-10 11:30N 40°38' W 074°04'0 0.0
2017-Nov-10 11:00N 40°38' W 074°04'0 0.0
2017-Nov-10 10:30N 40°38' W 074°04'0 0.0
2017-Nov-10 10:00N 40°38' W 074°04'0 0.0
2017-Nov-10 09:30N 40°38' W 074°04'0 0.0
2017-Nov-10 09:00N 40°38' W 074°04'0 0.1
2017-Nov-10 08:30N 40°38' W 074°04'0 0.0
2017-Nov-10 08:00N 40°38' W 074°04'0 0.0
2017-Nov-10 07:30N 40°38' W 074°04'0 0.0
2017-Nov-10 07:00N 40°38' W 074°04'0 0.0
2017-Nov-10 06:30N 40°38' W 074°04'0 0.1
2017-Nov-10 06:00N 40°38' W 074°04'0 0.0
2017-Nov-10 05:30N 40°38' W 074°04'0 0.0
2017-Nov-10 05:00N 40°38' W 074°04'0 0.0
2017-Nov-10 04:30N 40°38' W 074°04'0 0.0
2017-Nov-10 04:00N 40°38' W 074°04'0 0.0
2017-Nov-10 03:30N 40°38' W 074°04'0 0.0
2017-Nov-10 03:00N 40°38' W 074°04'0 0.0
2017-Nov-10 02:30N 40°38' W 074°04'0 0.0
2017-Nov-10 02:00N 40°38' W 074°04'0 0.0
2017-Nov-10 01:30N 40°38' W 074°04'0 0.0
2017-Nov-10 00:59N 40°38' W 074°04'0 0.0
2017-Nov-10 00:30N 40°38' W 074°04'0 0.0
2017-Nov-09 23:59N 40°38' W 074°04'0 0.0
2017-Nov-09 23:29N 40°38' W 074°04'0 0.0
2017-Nov-09 22:57N 40°38' W 074°04'0 0.0
2017-Nov-09 22:29N 40°38' W 074°04'0 0.1
2017-Nov-09 22:00N 40°38' W 074°04'0 0.3
2017-Nov-09 21:29N 40°38' W 074°04'0 0.0
2017-Nov-09 21:00N 40°38' W 074°04'2 4.8
2017-Nov-09 20:30N 40°40' W 074°03'2 4.4
2017-Nov-09 19:58N 40°38' W 074°04'0 0.0
2017-Nov-09 19:28N 40°38' W 074°04'0 0.0
2017-Nov-09 18:58N 40°38' W 074°04'0 0.0
2017-Nov-09 18:28N 40°38' W 074°04'0 0.0
2017-Nov-09 17:58N 40°38' W 074°04'0 0.0
2017-Nov-09 17:28N 40°38' W 074°04'0 0.0
2017-Nov-09 16:58N 40°38' W 074°04'0 0.0
2017-Nov-09 16:28N 40°38' W 074°04'0 0.0
2017-Nov-09 15:58N 40°38' W 074°04'0 0.0
2017-Nov-09 15:28N 40°38' W 074°04'0 0.0
2017-Nov-09 14:58N 40°38' W 074°04'0 0.0
2017-Nov-09 14:28N 40°38' W 074°04'0 0.0
2017-Nov-09 13:58N 40°38' W 074°04'0 0.0
2017-Nov-09 13:28N 40°38' W 074°04'0 0.0
2017-Nov-09 12:58N 40°38' W 074°04'0 0.0
2017-Nov-09 12:28N 40°38' W 074°04'0 0.0
2017-Nov-09 11:58N 40°38' W 074°04'0 0.0
2017-Nov-09 11:28N 40°38' W 074°04'0 0.0
2017-Nov-09 10:58N 40°38' W 074°04'0 0.0
2017-Nov-09 10:28N 40°38' W 074°04'0 0.0
2017-Nov-09 09:58N 40°38' W 074°04'0 0.0
2017-Nov-09 09:28N 40°38' W 074°04'0 0.0
2017-Nov-09 08:58N 40°38' W 074°04'0 0.0
2017-Nov-09 08:28N 40°38' W 074°04'0 0.0
2017-Nov-09 07:58N 40°38' W 074°04'0 0.0
2017-Nov-09 07:28N 40°38' W 074°04'0 0.0
2017-Nov-09 06:58N 40°38' W 074°04'0 0.0
2017-Nov-09 06:31N 40°38' W 074°04'0 0.0
2017-Nov-09 05:58N 40°38' W 074°04'0 0.0
2017-Nov-09 05:28N 40°38' W 074°04'0 0.0
2017-Nov-09 04:58N 40°38' W 074°04'0 0.0
2017-Nov-09 04:28N 40°38' W 074°04'0 0.0
2017-Nov-09 03:58N 40°38' W 074°04'0 0.0
2017-Nov-09 03:31N 40°38' W 074°04'0 0.0
2017-Nov-09 02:58N 40°38' W 074°04'0 0.0
2017-Nov-09 02:28N 40°38' W 074°04'0 0.0
2017-Nov-09 01:55N 40°38' W 074°04'0 0.0
2017-Nov-09 01:28N 40°38' W 074°04'0 0.0
2017-Nov-09 00:58N 40°38' W 074°04'0 0.0
2017-Nov-09 00:30N 40°38' W 074°04'0 0.0
2017-Nov-08 23:58N 40°38' W 074°04'0 0.0
2017-Nov-08 23:30N 40°38' W 074°04'0 0.0
2017-Nov-08 22:58N 40°38' W 074°04'0 0.0
2017-Nov-08 22:27N 40°38' W 074°04'0 0.0
2017-Nov-08 22:00N 40°38' W 074°04'0 0.0
2017-Nov-08 21:30N 40°38' W 074°04'0 0.0
2017-Nov-08 21:00N 40°38' W 074°04'0 0.0
2017-Nov-08 20:31N 40°38' W 074°04'0 0.0
2017-Nov-08 19:57N 40°38' W 074°04'0 0.0
2017-Nov-08 19:31N 40°38' W 074°04'0 0.0
2017-Nov-08 18:58N 40°38' W 074°04'0 0.0
2017-Nov-08 18:31N 40°38' W 074°04'0 0.0
2017-Nov-08 17:58N 40°38' W 074°04'  
Track history (hours):
 
Tides and Currents Weather Stations Pressure Air Temp Water Temp Dewpoint Dewpoint Depression Visibility Wind Speed Wind Dir Waves Ship Positions

Rana Miller

Owner: Miller's Tug & Barge, Staten Island, NY. More information available from US FCC via Universal Licensing System and Coast Guard Vessel Documentation Center.

Last reported at 2017-Nov-18 17:30 UTC. Time now 2017-Nov-18 17:54 UTC.
Position N 40°38' W 074°04'.

Length 40 m; draft 3.5 m.

Type: Ship. MMSI: 367388520.

Date/timePositionNaut miles runAvg speedWind from/ knotsBaromVisibWave heightAir tempDewpointWater temp
2017-Nov-18 17:30N 40°38' W 074°04'0 0.4
2017-Nov-18 17:00N 40°38' W 074°04'0 0.0
2017-Nov-18 16:30N 40°38' W 074°04'0 0.0
2017-Nov-18 16:00N 40°38' W 074°04'0 0.0
2017-Nov-18 15:31N 40°38' W 074°04'0 0.0
2017-Nov-18 15:01N 40°38' W 074°04'0 0.0
2017-Nov-18 14:31N 40°38' W 074°04'0 0.0
2017-Nov-18 14:01N 40°38' W 074°04'0 0.0
2017-Nov-18 13:30N 40°38' W 074°04'0 0.0
2017-Nov-18 13:00N 40°38' W 074°04'0 0.0
2017-Nov-18 12:31N 40°38' W 074°04'0 0.0
2017-Nov-18 12:01N 40°38' W 074°04'0 0.0
2017-Nov-18 11:31N 40°38' W 074°04'0 0.0
2017-Nov-18 11:00N 40°38' W 074°04'0 0.0
2017-Nov-18 10:30N 40°38' W 074°04'0 0.0
2017-Nov-18 10:01N 40°38' W 074°04'0 0.0
2017-Nov-18 09:31N 40°38' W 074°04'0 0.0
2017-Nov-18 09:01N 40°38' W 074°04'0 0.0
2017-Nov-18 08:31N 40°38' W 074°04'0 0.0
2017-Nov-18 08:01N 40°38' W 074°04'0 0.0
2017-Nov-18 07:31N 40°38' W 074°04'0 0.0
2017-Nov-18 07:00N 40°38' W 074°04'0 0.0
2017-Nov-18 06:30N 40°38' W 074°04'0 0.0
2017-Nov-18 06:01N 40°38' W 074°04'0 0.0
2017-Nov-18 05:31N 40°38' W 074°04'0 0.0
2017-Nov-18 05:01N 40°38' W 074°04'2 3.7
2017-Nov-18 04:31N 40°37' W 074°03'4 8.2
2017-Nov-18 04:00N 40°33' W 074°01'4 7.9
2017-Nov-18 03:30N 40°30' W 073°57'4 8.7
2017-Nov-18 03:00N 40°28' W 073°52'186 8.3
2017-Nov-17 04:43N 42°14' W 070°29'2 9.5
2017-Nov-17 04:30N 42°16' W 070°28'5 9.3
2017-Nov-17 04:00N 42°21' W 070°27'4 8.8
2017-Nov-17 03:30N 42°25' W 070°25'5 9.5
2017-Nov-17 03:00N 42°30' W 070°25'510.1
2017-Nov-17 02:30N 42°35' W 070°25'510.2
2017-Nov-17 02:01N 42°40' W 070°25'510.0
2017-Nov-17 01:30N 42°45' W 070°25'5 9.6
2017-Nov-17 01:00N 42°49' W 070°24'13 0.6
2017-Nov-16 03:18N 42°45' W 070°06'310.1
2017-Nov-16 03:00N 42°43' W 070°07'510.1
2017-Nov-16 02:29N 42°38' W 070°10'510.2
2017-Nov-16 02:00N 42°33' W 070°12'510.3
2017-Nov-16 01:30N 42°28' W 070°14'237 9.1
2017-Nov-14 23:28N 39°44' W 073°60'5 9.6
2017-Nov-14 22:59N 39°41' W 074°05'5 9.8
2017-Nov-14 22:29N 39°37' W 074°08'60 7.7
2017-Nov-14 14:42N 38°57' W 075°07'211.7
2017-Nov-14 14:31N 38°59' W 075°08'611.5
2017-Nov-14 14:00N 39°04' W 075°11'610.9
2017-Nov-14 13:30N 39°09' W 075°15'510.3
2017-Nov-14 13:00N 39°13' W 075°18'5 9.6
2017-Nov-14 12:30N 39°17' W 075°22'4 8.7
2017-Nov-14 12:00N 39°20' W 075°26'4 8.3
2017-Nov-14 11:30N 39°23' W 075°29'4 8.4
2017-Nov-14 11:01N 39°27' W 075°33'4 7.7
2017-Nov-14 10:30N 39°30' W 075°33'3 6.6
2017-Nov-14 10:01N 39°34' W 075°34'611.2
2017-Nov-14 09:31N 39°33' W 075°41'611.2
2017-Nov-14 09:00N 39°32' W 075°48'4 8.8
2017-Nov-14 08:30N 39°31' W 075°54'510.6
2017-Nov-14 08:00N 39°27' W 075°59'510.2
2017-Nov-14 07:30N 39°24' W 076°04'510.2
2017-Nov-14 07:00N 39°21' W 076°10'5 9.5
2017-Nov-14 06:30N 39°17' W 076°14'5 9.6
2017-Nov-14 06:00N 39°13' W 076°15'5 9.6
2017-Nov-14 05:29N 39°09' W 076°19'510.3
2017-Nov-14 05:00N 39°10' W 076°25'510.4
2017-Nov-14 04:30N 39°13' W 076°31'4 7.3
2017-Nov-14 04:01N 39°16' W 076°34'0 0.0
2017-Nov-14 03:30N 39°16' W 076°34'0 0.0
2017-Nov-14 03:01N 39°16' W 076°34'0 0.0
2017-Nov-14 02:31N 39°16' W 076°34'0 0.0
2017-Nov-14 02:01N 39°16' W 076°34'0 0.0
2017-Nov-14 01:30N 39°16' W 076°34'0 0.0
2017-Nov-14 01:00N 39°16' W 076°34'0 0.0
2017-Nov-14 00:31N 39°16' W 076°34'0 0.0
2017-Nov-14 00:00N 39°16' W 076°34'0 0.0
2017-Nov-13 23:31N 39°16' W 076°34'0 0.0
2017-Nov-13 23:00N 39°16' W 076°34'0 0.0
2017-Nov-13 22:30N 39°16' W 076°34'0 0.0
2017-Nov-13 22:01N 39°16' W 076°34'86 3.8
2017-Nov-12 23:32N 38°53' W 074°47'0 9.6
2017-Nov-12 23:30N 38°53' W 074°47'23 9.4
2017-Nov-12 21:05N 39°12' W 074°31'1 9.8
2017-Nov-12 20:57N 39°13' W 074°30'26 9.7
2017-Nov-12 18:18N 39°33' W 074°09'310.0
2017-Nov-12 17:59N 39°36' W 074°07'510.0
2017-Nov-12 17:29N 39°40' W 074°04'610.0
2017-Nov-12 16:55N 39°45' W 074°00'3510.0
2017-Nov-12 13:25N 40°20' W 073°56'410.0
2017-Nov-12 13:00N 40°24' W 073°55'5 8.7
2017-Nov-12 12:23N 40°30' W 073°56'410.4
2017-Nov-12 12:01N 40°31' W 074°00'510.8
2017-Nov-12 11:30N 40°37' W 074°03'2 3.7
2017-Nov-12 11:00N 40°38' W 074°04'0 0.0
2017-Nov-12 10:30N 40°38' W 074°04'0 0.0
2017-Nov-12 10:00N 40°38' W 074°04'0 0.0
2017-Nov-12 09:28N 40°38' W 074°04'0 0.0
2017-Nov-12 08:58N 40°38' W 074°04'0 0.0
2017-Nov-12 08:28N 40°38' W 074°04'0 0.0
2017-Nov-12 07:58N 40°38' W 074°04'0 0.0
2017-Nov-12 07:28N 40°38' W 074°04'0 0.0
2017-Nov-12 07:00N 40°38' W 074°04'0 0.0
2017-Nov-12 06:30N 40°38' W 074°04'0 0.0
2017-Nov-12 06:00N 40°38' W 074°04'0 0.1
2017-Nov-12 05:30N 40°38' W 074°04'0 0.0
2017-Nov-12 05:00N 40°38' W 074°04'0 0.0
2017-Nov-12 04:30N 40°38' W 074°04'0 0.0
2017-Nov-12 03:57N 40°38' W 074°04'0 0.0
2017-Nov-12 03:30N 40°38' W 074°04'0 0.0
2017-Nov-12 03:00N 40°38' W 074°04'0 0.0
2017-Nov-12 02:30N 40°38' W 074°04'0 0.0
2017-Nov-12 01:30N 40°38' W 074°04'0 0.0
2017-Nov-12 00:54N 40°38' W 074°04'0 0.0
2017-Nov-12 00:27N 40°38' W 074°04'0 0.0
2017-Nov-12 00:00N 40°38' W 074°04'0 0.1
2017-Nov-11 23:30N 40°38' W 074°04'0 0.0
2017-Nov-11 23:00N 40°38' W 074°04'0 0.0
2017-Nov-11 22:30N 40°38' W 074°04'0 0.0
2017-Nov-11 21:57N 40°38' W 074°04'0 0.0
2017-Nov-11 21:27N 40°38' W 074°04'0 0.0
2017-Nov-11 21:00N 40°38' W 074°04'0 0.0
2017-Nov-11 20:30N 40°38' W 074°04'0 0.0
2017-Nov-11 20:00N 40°38' W 074°04'0 0.0
2017-Nov-11 19:30N 40°38' W 074°04'0 0.0
2017-Nov-11 19:00N 40°38' W 074°04'0 0.0
2017-Nov-11 18:27N 40°38' W 074°04'0 0.0
2017-Nov-11 17:57N 40°38' W 074°04'0 0.0
2017-Nov-11 17:30N 40°38' W 074°04'0 0.0
2017-Nov-11 16:51N 40°38' W 074°04'0 0.0
2017-Nov-11 16:30N 40°38' W 074°04'0 0.0
2017-Nov-11 16:00N 40°38' W 074°04'0 0.0
2017-Nov-11 15:30N 40°38' W 074°04'0 0.0
2017-Nov-11 15:00N 40°38' W 074°04'0 0.0
2017-Nov-11 14:30N 40°38' W 074°04'0 0.0
2017-Nov-11 14:00N 40°38' W 074°04'0 0.0
2017-Nov-11 13:30N 40°38' W 074°04'0 0.0
2017-Nov-11 13:00N 40°38' W 074°04'0 0.0
2017-Nov-11 12:27N 40°38' W 074°04'0 0.0
2017-Nov-11 12:00N 40°38' W 074°04'0 0.0
2017-Nov-11 11:30N 40°38' W 074°04'0 0.0
2017-Nov-11 10:57N 40°38' W 074°04'0 0.0
2017-Nov-11 10:30N 40°38' W 074°04'0 0.0
2017-Nov-11 10:00N 40°38' W 074°04'0 0.0
2017-Nov-11 09:30N 40°38' W 074°04'0 0.0
2017-Nov-11 09:00N 40°38' W 074°04'0 0.0
2017-Nov-11 08:30N 40°38' W 074°04'0 0.0
2017-Nov-11 08:00N 40°38' W 074°04'0 0.0
2017-Nov-11 07:30N 40°38' W 074°04'0 0.0
2017-Nov-11 07:00N 40°38' W 074°04'0 0.0
2017-Nov-11 06:30N 40°38' W 074°04'0 0.0
2017-Nov-11 06:00N 40°38' W 074°04'0 0.0
2017-Nov-11 05:30N 40°38' W 074°04'0 0.0
2017-Nov-11 05:00N 40°38' W 074°04'0 0.0
2017-Nov-11 04:30N 40°38' W 074°04'0 0.0
2017-Nov-11 04:00N 40°38' W 074°04'0 0.0
2017-Nov-11 03:30N 40°38' W 074°04'0 0.0
2017-Nov-11 03:00N 40°38' W 074°04'0 0.0
2017-Nov-11 02:30N 40°38' W 074°04'0 0.0
2017-Nov-11 02:00N 40°38' W 074°04'0 0.0
2017-Nov-11 01:30N 40°38' W 074°04'0 0.0
2017-Nov-11 00:57N 40°38' W 074°04'0 0.0
2017-Nov-11 00:30N 40°38' W 074°04'0 0.0
2017-Nov-10 23:57N 40°38' W 074°04'0 0.0
2017-Nov-10 23:30N 40°38' W 074°04'0 0.0
2017-Nov-10 22:57N 40°38' W 074°04'0 0.0
2017-Nov-10 22:30N 40°38' W 074°04'0 0.0
2017-Nov-10 22:00N 40°38' W 074°04'0 0.0
2017-Nov-10 21:30N 40°38' W 074°04'0 0.0
2017-Nov-10 21:00N 40°38' W 074°04'0 0.0
2017-Nov-10 20:30N 40°38' W 074°04'0 0.1
2017-Nov-10 20:00N 40°38' W 074°04'0 0.0
2017-Nov-10 19:30N 40°38' W 074°04'0 0.0
2017-Nov-10 19:00N 40°38' W 074°04'0 0.0
2017-Nov-10 18:30N 40°38' W 074°04'0 0.0
2017-Nov-10 18:00N 40°38' W 074°04'0 0.0
2017-Nov-10 17:27N 40°38' W 074°04'0 0.0
2017-Nov-10 17:00N 40°38' W 074°04'0 0.0
2017-Nov-10 16:30N 40°38' W 074°04'0 0.1
2017-Nov-10 16:00N 40°38' W 074°04'0 0.0
2017-Nov-10 15:30N 40°38' W 074°04'0 0.0
2017-Nov-10 15:00N 40°38' W 074°04'0 0.0
2017-Nov-10 14:30N 40°38' W 074°04'0 0.0
2017-Nov-10 14:00N 40°38' W 074°04'0 0.0
2017-Nov-10 13:30N 40°38' W 074°04'0 0.0
2017-Nov-10 13:00N 40°38' W 074°04'0 0.0
2017-Nov-10 12:30N 40°38' W 074°04'0 0.0
2017-Nov-10 11:57N 40°38' W 074°04'0 0.0
2017-Nov-10 11:30N 40°38' W 074°04'0 0.0
2017-Nov-10 11:00N 40°38' W 074°04'0 0.0
2017-Nov-10 10:30N 40°38' W 074°04'0 0.0
2017-Nov-10 10:00N 40°38' W 074°04'0 0.0
2017-Nov-10 09:30N 40°38' W 074°04'0 0.0
2017-Nov-10 09:00N 40°38' W 074°04'0 0.1
2017-Nov-10 08:30N 40°38' W 074°04'0 0.0
2017-Nov-10 08:00N 40°38' W 074°04'0 0.0
2017-Nov-10 07:30N 40°38' W 074°04'0 0.0
2017-Nov-10 07:00N 40°38' W 074°04'0 0.0
2017-Nov-10 06:30N 40°38' W 074°04'0 0.1
2017-Nov-10 06:00N 40°38' W 074°04'0 0.0
2017-Nov-10 05:30N 40°38' W 074°04'0 0.0
2017-Nov-10 05:00N 40°38' W 074°04'0 0.0
2017-Nov-10 04:30N 40°38' W 074°04'0 0.0
2017-Nov-10 04:00N 40°38' W 074°04'0 0.0
2017-Nov-10 03:30N 40°38' W 074°04'0 0.0
2017-Nov-10 03:00N 40°38' W 074°04'0 0.0
2017-Nov-10 02:30N 40°38' W 074°04'0 0.0
2017-Nov-10 02:00N 40°38' W 074°04'0 0.0
2017-Nov-10 01:30N 40°38' W 074°04'0 0.0
2017-Nov-10 00:59N 40°38' W 074°04'0 0.0
2017-Nov-10 00:30N 40°38' W 074°04'0 0.0
2017-Nov-09 23:59N 40°38' W 074°04'0 0.0
2017-Nov-09 23:29N 40°38' W 074°04'0 0.0
2017-Nov-09 22:57N 40°38' W 074°04'0 0.0
2017-Nov-09 22:29N 40°38' W 074°04'0 0.1
2017-Nov-09 22:00N 40°38' W 074°04'0 0.3
2017-Nov-09 21:29N 40°38' W 074°04'0 0.0
2017-Nov-09 21:00N 40°38' W 074°04'2 4.8
2017-Nov-09 20:30N 40°40' W 074°03'2 4.4
2017-Nov-09 19:58N 40°38' W 074°04'0 0.0
2017-Nov-09 19:28N 40°38' W 074°04'0 0.0
2017-Nov-09 18:58N 40°38' W 074°04'0 0.0
2017-Nov-09 18:28N 40°38' W 074°04'0 0.0
2017-Nov-09 17:58N 40°38' W 074°04'0 0.0
2017-Nov-09 17:28N 40°38' W 074°04'0 0.0
2017-Nov-09 16:58N 40°38' W 074°04'0 0.0
2017-Nov-09 16:28N 40°38' W 074°04'0 0.0
2017-Nov-09 15:58N 40°38' W 074°04'0 0.0
2017-Nov-09 15:28N 40°38' W 074°04'0 0.0
2017-Nov-09 14:58N 40°38' W 074°04'0 0.0
2017-Nov-09 14:28N 40°38' W 074°04'0 0.0
2017-Nov-09 13:58N 40°38' W 074°04'0 0.0
2017-Nov-09 13:28N 40°38' W 074°04'0 0.0
2017-Nov-09 12:58N 40°38' W 074°04'0 0.0
2017-Nov-09 12:28N 40°38' W 074°04'0 0.0
2017-Nov-09 11:58N 40°38' W 074°04'0 0.0
2017-Nov-09 11:28N 40°38' W 074°04'0 0.0
2017-Nov-09 10:58N 40°38' W 074°04'0 0.0
2017-Nov-09 10:28N 40°38' W 074°04'0 0.0
2017-Nov-09 09:58N 40°38' W 074°04'0 0.0
2017-Nov-09 09:28N 40°38' W 074°04'0 0.0
2017-Nov-09 08:58N 40°38' W 074°04'0 0.0
2017-Nov-09 08:28N 40°38' W 074°04'0 0.0
2017-Nov-09 07:58N 40°38' W 074°04'0 0.0
2017-Nov-09 07:28N 40°38' W 074°04'0 0.0
2017-Nov-09 06:58N 40°38' W 074°04'0 0.0
2017-Nov-09 06:31N 40°38' W 074°04'0 0.0
2017-Nov-09 05:58N 40°38' W 074°04'0 0.0
2017-Nov-09 05:28N 40°38' W 074°04'0 0.0
2017-Nov-09 04:58N 40°38' W 074°04'0 0.0
2017-Nov-09 04:28N 40°38' W 074°04'0 0.0
2017-Nov-09 03:58N 40°38' W 074°04'0 0.0
2017-Nov-09 03:31N 40°38' W 074°04'0 0.0
2017-Nov-09 02:58N 40°38' W 074°04'0 0.0
2017-Nov-09 02:28N 40°38' W 074°04'0 0.0
2017-Nov-09 01:55N 40°38' W 074°04'0 0.0
2017-Nov-09 01:28N 40°38' W 074°04'0 0.0
2017-Nov-09 00:58N 40°38' W 074°04'0 0.0
2017-Nov-09 00:30N 40°38' W 074°04'0 0.0
2017-Nov-08 23:58N 40°38' W 074°04'0 0.0
2017-Nov-08 23:30N 40°38' W 074°04'0 0.0
2017-Nov-08 22:58N 40°38' W 074°04'0 0.0
2017-Nov-08 22:27N 40°38' W 074°04'0 0.0
2017-Nov-08 22:00N 40°38' W 074°04'0 0.0
2017-Nov-08 21:30N 40°38' W 074°04'0 0.0
2017-Nov-08 21:00N 40°38' W 074°04'0 0.0
2017-Nov-08 20:31N 40°38' W 074°04'0 0.0
2017-Nov-08 19:57N 40°38' W 074°04'0 0.0
2017-Nov-08 19:31N 40°38' W 074°04'0 0.0
2017-Nov-08 18:58N 40°38' W 074°04'0 0.0
2017-Nov-08 18:31N 40°38' W 074°04'0 0.0
2017-Nov-08 17:58N 40°38' W 074°04'  

Dump ship's entire track history